Flight Number: EUR2030 Duration: 3:30
Departure: Reykjavik (BIRK) at 18:15 Distance: 1445 Nm
Arrival: Munich Int'l (EDDM) at 21:45 Equipment: B737

Weather Information
Reykjavik, Iceland (BIRK) 64-08N 021-54W 61M Nov 19, 2017 - 10:00 PM EST / 2017.11.20 0300 UTC
Wind: from the ENE (070 degrees) at 8 MPH (7 KT):0
Visibility: greater than 7 mile(s):0 Temperature: 30 F (-1 C)
Windchill: 23 F (-5 C):1 Dew Point: 15 F (-9 C) Relative Humidity: 54% Pressure (altimeter): 30.18 in. Hg (1022 hPa)
ob: BIRK 200300Z 07007KT CAVOK M01/M09 Q1022 cycle: 3
Sunrise: 10:23 Sunset: 16:04 (UTC)

Munchen, Germany (EDDM) 48-21N 011-47E Nov 19, 2017 - 10:50 PM EST / 2017.11.20 0350 UTC
Wind: from the W (260 degrees) at 14 MPH (12 KT):0
Visibility: greater than 7 mile(s):0 Temperature: 35 F (2 C)
Windchill: 26 F (-3 C):1 Dew Point: 30 F (-1 C) Relative Humidity: 80% Pressure (altimeter): 30.15 in. Hg (1021 hPa)
ob: EDDM 200350Z 26012KT CAVOK 02/M01 Q1021 NOSIG cycle: 4
Sunrise: 06:32 Sunset: 15:24 (UTC)

TAF:2017/11/19 18:27 TAF EDDM 191700Z 1918/2024 26013KT 9999 FEW014 BKN040 TEMPO 1918/2003 31015G25KT PROB30 TEMPO 1918/2003 2000 SHSNRA BKN014CB BECMG 2015/2018 23007KT TEMPO 2018/2024 RA BECMG 2021/2024 25015G25KT

Previous Pireps for this route
Date Aircraft Flight time Fuel used Landing rate On time
2013-01-27B7373.10198660No
2014-01-17B73704.3733433-310No
2015-01-02B73703.4818833-179Charter
(pireps marked green are flown by you)

Route map